ADDS METAR Data INFO
IDs: Format: Raw Decoded Include TAF

Data at: 2028 UTC 20 Jul 2018

KIML 201953Z AUTO 09009KT 10SM FEW042 31/21 A3001 RMK AO2 SLP123 T03110211
KIML 201853Z AUTO 06007KT 10SM FEW040 31/22 A3002 RMK AO2 SLP126 T03110222
KIML 201753Z AUTO 08006KT 10SM SCT036 30/22 A3003 RMK AO2 SLP128 T03000222 10300 20211 53006
KIML 201653Z AUTO 11009G16KT 10SM CLR 29/22 A3001 RMK AO2 SLP125 T02890222
KIML 201553Z AUTO 14006KT 10SM CLR 27/22 A3001 RMK AO2 SLP124 T02720222
KIML 201453Z AUTO 12004KT 10SM CLR 26/22 A3001 RMK AO2 SLP126 T02560222 51012
KIML 201353Z AUTO 11005KT 10SM FEW004 23/22 A2999 RMK AO2 SLP122 T02280217
KIML 201345Z AUTO 12004KT 10SM FEW004 23/22 A2999 RMK AO2 T02280217
KIML 201253Z AUTO 13007KT 3SM BR OVC002 21/21 A2999 RMK AO2 SLP117 T02110211
KIML 201242Z AUTO 12008KT 3SM BR OVC002 21/21 A2998 RMK AO2 T02110211
KIML 201234Z AUTO 13007KT 2 1/2SM BR OVC002 21/21 A2998 RMK AO2 T02110211
KIML 201211Z AUTO 09006KT 1SM BR VV002 21/21 A2997 RMK AO2 T02110211
KIML 201153Z AUTO 06004KT 2 1/2SM BR OVC002 21/21 A2997 RMK AO2 SLP108 T02110211 10244 20206 53002
KIML 201149Z AUTO 06003KT 2SM BR OVC002 21/21 A2997 RMK AO2
KIML 201053Z AUTO 11005KT 8SM OVC004 21/21 A2996 RMK AO2 SLP106 T02110211
KIML 201045Z AUTO 12005KT 7SM BKN004 21/21 A2997 RMK AO2 T02060206
KIML 201035Z AUTO 10003KT 3SM BR SCT004 21/21 A2996 RMK AO2 T02060206
KIML 200953Z AUTO 08005KT 7SM CLR 21/21 A2996 RMK AO2 SLP105 T02110211
KIML 200853Z AUTO 06004KT 10SM CLR 21/21 A2998 RMK AO2 SLP111 T02110211 55003
KIML 200753Z AUTO 04006KT 10SM CLR 22/22 A2998 RMK AO2 SLP111 T02220217
KIML 200653Z AUTO 16003KT 10SM CLR 23/22 A2999 RMK AO2 SLP113 T02280222 403440178
KIML 200553Z AUTO 16004KT 10SM CLR 24/22 A2999 RMK AO2 SLP115 T02390222 10328 20222 51011
KIML 200453Z AUTO 14005KT 10SM CLR 23/21 A2998 RMK AO2 SLP113 T02280211
KIML 200353Z AUTO 14004KT 10SM CLR 23/21 A2997 RMK AO2 SLP113 T02330206
KIML 200253Z AUTO 12005KT 10SM CLR 24/21 A2995 RMK AO2 SLP106 T02390206 53010
KIML 200153Z AUTO 09006KT 10SM CLR 27/19 A2993 RMK AO2 SLP099 T02720189
KIML 200053Z AUTO 06006KT 10SM CLR 31/17 A2992 RMK AO2 SLP095 T03060167
KIML 192353Z AUTO 07007KT 10SM CLR 33/18 A2992 RMK AO2 SLP095 T03280178 10344 20317 56010
KIML 192253Z AUTO 05004KT 10SM CLR 34/16 A2993 RMK AO2 SLP095 T03390156
KIML 192153Z AUTO 01004KT 10SM CLR 34/17 A2994 RMK AO2 SLP099 T03390172
KIML 192053Z AUTO 01005KT 10SM CLR 34/18 A2995 RMK AO2 SLP103 T03390183 58007
KIML 191953Z AUTO 07004KT 10SM CLR 33/18 A2996 RMK AO2 SLP105 T03330183
KIML 191853Z AUTO 10SM CLR 33/19 A2997 RMK AO2 SLP108 T03280189
KIML 191753Z AUTO 09004KT 10SM CLR 32/21 A2998 RMK AO2 SLP111 T03170206 10317 20183 56004
KIML 191653Z AUTO 02004KT 10SM CLR 31/23 A2998 RMK AO2 SLP114 T03060233
KIML 191553Z AUTO 36004KT 10SM CLR 28/23 A2998 RMK AO2 SLP113 T02830228
KIML 191453Z AUTO 00000KT 10SM CLR 27/22 A2999 RMK AO2 SLP120 T02670222 50004
KIML 191353Z AUTO 22003KT 10SM CLR 24/22 A2999 RMK AO2 SLP118 T02390222
KIML 191253Z AUTO 00000KT 10SM CLR 21/21 A2998 RMK AO2 SLP115 T02110206
KIML 191153Z AUTO 00000KT 8SM CLR 18/18 A2998 RMK AO2 SLP116 T01830183 10228 20178 50001
KIML 191053Z AUTO 01003KT 10SM CLR 19/19 A2998 RMK AO2 SLP116 T01940194
KIML 190953Z AUTO 36006KT 10SM CLR 20/19 A2997 RMK AO2 SLP113 T02000194
KIML 190853Z AUTO 22003KT 10SM CLR 21/20 A2997 RMK AO2 SLP114 T02060200 58006